Time;durP1;ratioP1;P1;durP2;ratioP2;P2;SDS_P1;SDS_P2;PMS_P1;PMS_P2;Temp;Humidity;BMP_temperature;BMP_pressure;BME280_temperature;BME280_humidity;BME280_pressure;Samples;Min_cycle;Max_cycle;Signal;HPM_P1;HPM_P2
2021/11/25 00:00:13;;;;;;;34.30;22.15;;;;;;;5.97;82.42;101360.88;4994985;28;20046;-51
2021/11/25 00:02:40;;;;;;;36.97;23.88;;;;;;;5.98;82.82;101354.41;4994919;28;20042;-50
2021/11/25 00:05:09;;;;;;;34.33;22.55;;;;;;;5.99;82.41;101353.38;4994608;28;20098;-51
2021/11/25 00:07:37;;;;;;;33.08;21.15;;;;;;;6.02;82.68;101355.63;4993909;28;20038;-49
2021/11/25 00:10:06;;;;;;;35.85;23.17;;;;;;;5.97;81.35;101358.16;4994780;28;20058;-52
2021/11/25 00:12:38;;;;;;;33.80;21.65;;;;;;;5.86;81.44;101356.97;4995734;28;20053;-49
2021/11/25 00:15:07;;;;;;;32.42;23.00;;;;;;;5.77;81.41;101350.19;4994376;28;20044;-48
2021/11/25 00:17:34;;;;;;;36.78;23.25;;;;;;;5.67;81.87;101352.59;4994271;28;20046;-53
2021/11/25 00:20:04;;;;;;;37.75;23.80;;;;;;;5.60;81.79;101341.84;4994361;28;20041;-49
2021/11/25 00:22:32;;;;;;;32.75;21.60;;;;;;;5.60;82.69;101338.31;4994915;28;20035;-48
2021/11/25 00:25:00;;;;;;;32.67;21.65;;;;;;;5.64;82.75;101334.13;4994212;28;20076;-50
2021/11/25 00:27:28;;;;;;;29.67;20.58;;;;;;;5.68;82.72;101329.94;4994276;28;20506;-51
2021/11/25 00:29:55;;;;;;;31.33;21.00;;;;;;;5.72;82.66;101323.88;4994024;28;20065;-50
2021/11/25 00:32:23;;;;;;;32.50;20.92;;;;;;;5.70;82.02;101311.59;4995056;28;20499;-47
2021/11/25 00:34:50;;;;;;;31.88;20.88;;;;;;;5.63;81.19;101318.94;4993709;28;20368;-51
2021/11/25 00:37:18;;;;;;;29.98;20.92;;;;;;;5.55;81.34;101323.56;4993581;28;20390;-48
2021/11/25 00:39:46;;;;;;;34.30;20.98;;;;;;;5.50;81.72;101315.31;4993906;28;20196;-50
2021/11/25 00:42:13;;;;;;;32.05;20.48;;;;;;;5.50;82.23;101318.00;4994024;28;20050;-50
2021/11/25 00:44:41;;;;;;;28.95;20.17;;;;;;;5.54;82.41;101310.31;4993822;28;20092;-52
2021/11/25 00:47:09;;;;;;;30.55;20.23;;;;;;;5.61;82.59;101318.34;4993675;28;20042;-51
2021/11/25 00:49:36;;;;;;;28.52;19.55;;;;;;;5.66;81.80;101315.81;4993231;28;20049;-50
2021/11/25 00:52:04;;;;;;;28.45;18.58;;;;;;;5.68;81.65;101319.13;4993835;28;20065;-50
2021/11/25 00:54:32;;;;;;;29.33;19.73;;;;;;;5.68;80.56;101313.72;4994768;28;20408;-51
2021/11/25 00:56:59;;;;;;;28.55;18.90;;;;;;;5.58;80.44;101319.63;4992420;28;20050;-52
2021/11/25 00:59:27;;;;;;;31.35;19.83;;;;;;;5.48;80.50;101314.75;4993771;28;20042;-54
2021/11/25 01:01:54;;;;;;;28.63;18.85;;;;;;;5.45;81.29;101319.75;4992911;28;20057;-50
2021/11/25 01:04:24;;;;;;;31.20;19.63;;;;;;;5.42;81.16;101315.59;4993933;28;20082;-53
2021/11/25 01:06:51;;;;;;;30.98;19.15;;;;;;;5.37;81.27;101320.84;4993770;28;20046;-51
2021/11/25 01:09:19;;;;;;;29.55;20.00;;;;;;;5.37;81.30;101318.16;4992674;28;20050;-51
2021/11/25 01:11:47;;;;;;;29.83;19.60;;;;;;;5.44;81.90;101315.41;4993480;28;20045;-51
2021/11/25 01:14:16;;;;;;;26.92;18.17;;;;;;;5.50;81.40;101318.00;4994233;28;20117;-49
2021/11/25 01:16:43;;;;;;;31.10;20.05;;;;;;;5.52;80.54;101312.41;4993329;28;20117;-52
2021/11/25 01:19:11;;;;;;;29.60;19.88;;;;;;;5.51;80.63;101311.59;4992951;28;20039;-50
2021/11/25 01:21:38;;;;;;;29.90;18.27;;;;;;;5.49;80.09;101313.69;4993086;28;20060;-52
2021/11/25 01:24:06;;;;;;;28.38;19.65;;;;;;;5.45;79.58;101315.16;4993485;28;20047;-51
2021/11/25 01:26:34;;;;;;;31.45;19.98;;;;;;;5.39;80.12;101315.22;4993720;28;20057;-49
2021/11/25 01:29:01;;;;;;;33.63;19.88;;;;;;;5.38;80.65;101310.88;4993106;28;20073;-53
2021/11/25 01:31:29;;;;;;;26.67;18.27;;;;;;;5.42;80.70;101304.81;4992754;28;20046;-52
2021/11/25 01:33:57;;;;;;;30.10;19.27;;;;;;;5.47;80.70;101307.66;4992635;28;20047;-54
2021/11/25 01:36:24;;;;;;;27.70;17.90;;;;;;;5.52;80.30;101307.81;4999684;28;20046;-50
2021/11/25 01:38:52;;;;;;;26.25;18.42;;;;;;;5.54;79.77;101302.19;4992697;28;20054;-50
2021/11/25 01:41:20;;;;;;;30.05;18.83;;;;;;;5.48;79.20;101294.97;4993097;28;20057;-50
2021/11/25 01:43:48;;;;;;;30.70;19.70;;;;;;;5.34;79.48;101297.81;4992773;28;20141;-53
2021/11/25 01:46:18;;;;;;;27.70;18.58;;;;;;;5.32;79.92;101299.09;4993443;28;20043;-52
2021/11/25 01:48:47;;;;;;;31.50;19.75;;;;;;;5.29;79.80;101296.78;4992471;28;20048;-50
2021/11/25 01:51:16;;;;;;;29.17;18.88;;;;;;;5.24;80.04;101302.03;4992954;28;20054;-50
2021/11/25 01:53:44;;;;;;;31.42;19.60;;;;;;;5.22;80.46;101304.13;4992723;28;20043;-53
2021/11/25 01:56:14;;;;;;;30.73;19.60;;;;;;;5.21;80.64;101297.09;4992696;28;20035;-51
2021/11/25 01:58:42;;;;;;;27.80;18.98;;;;;;;5.19;80.82;101291.88;4986626;28;20092;-51
2021/11/25 02:01:11;;;;;;;29.05;19.40;;;;;;;5.21;80.89;101294.38;4979129;28;20038;-52
2021/11/25 02:03:40;;;;;;;28.95;19.25;;;;;;;5.23;81.42;101298.53;4990758;28;20042;-50
2021/11/25 02:06:09;;;;;;;26.45;18.48;;;;;;;5.30;81.35;101291.19;4992628;28;20366;-52
2021/11/25 02:08:37;;;;;;;28.23;18.92;;;;;;;5.37;81.33;101284.91;4993117;28;20065;-50
2021/11/25 02:11:06;;;;;;;34.40;21.00;;;;;;;5.38;80.48;101290.06;4992527;28;20381;-49
2021/11/25 02:13:34;;;;;;;31.98;19.92;;;;;;;5.29;80.69;101286.00;4991498;28;20061;-50
2021/11/25 02:16:01;;;;;;;28.40;19.15;;;;;;;5.24;81.09;101275.03;4992953;28;20050;-53
2021/11/25 02:18:29;;;;;;;27.27;18.67;;;;;;;5.23;81.62;101268.81;4988881;28;20061;-54
2021/11/25 02:20:59;;;;;;;26.55;18.45;;;;;;;5.25;81.28;101276.69;4992469;28;20044;-52
2021/11/25 02:23:28;;;;;;;26.92;18.90;;;;;;;5.24;81.11;101273.16;4992021;28;20042;-54
2021/11/25 02:25:56;;;;;;;28.48;18.98;;;;;;;5.24;81.13;101267.78;4992268;28;20046;-52
2021/11/25 02:28:29;;;;;;;27.90;19.65;;;;;;;5.22;80.79;101260.91;4992960;28;20053;-50
2021/11/25 02:30:57;;;;;;;28.90;18.95;;;;;;;5.16;80.68;101261.81;4992218;28;20108;-51
2021/11/25 02:33:25;;;;;;;27.17;18.65;;;;;;;5.11;80.54;101260.59;4991773;28;20074;-48
2021/11/25 02:35:52;;;;;;;26.10;18.13;;;;;;;5.07;80.71;101250.44;4992440;28;20431;-54
2021/11/25 02:38:20;;;;;;;26.40;18.42;;;;;;;5.06;80.82;101244.22;4993212;28;20500;-52
2021/11/25 02:40:58;;;;;;;27.13;18.55;;;;;;;5.10;81.17;101244.63;4982291;28;20045;-54
2021/11/25 02:43:28;;;;;;;26.58;19.25;;;;;;;5.12;80.33;101251.47;4991985;28;20613;-51
2021/11/25 02:46:04;;;;;;;30.77;19.23;;;;;;;5.08;80.05;101249.41;4991297;28;20408;-52
2021/11/25 02:48:40;;;;;;;27.73;19.27;;;;;;;5.04;80.73;101254.41;4992722;28;20492;-53
2021/11/25 02:51:08;;;;;;;31.48;19.83;;;;;;;5.02;80.29;101255.69;4983730;28;20047;-50
2021/11/25 02:53:36;;;;;;;26.10;18.75;;;;;;;4.93;80.08;101247.06;4992134;28;20077;-52
2021/11/25 02:56:07;;;;;;;25.52;17.85;;;;;;;4.90;80.63;101247.47;4991974;28;20050;-52
2021/11/25 02:58:35;;;;;;;28.63;18.75;;;;;;;4.91;80.64;101243.75;4992649;28;20156;-49
2021/11/25 03:01:36;;;;;;;28.25;18.15;;;;;;;4.96;81.13;101238.50;4990887;28;20065;-52
2021/11/25 03:04:06;;;;;;;29.27;17.33;;;;;;;5.01;80.92;101233.25;4990128;28;20085;-51
2021/11/25 03:06:34;;;;;;;30.08;17.92;;;;;;;5.05;80.20;101234.47;4991721;28;20523;-50
2021/11/25 03:09:04;;;;;;;25.85;17.65;;;;;;;5.03;79.68;101233.88;4990594;28;20058;-49
2021/11/25 03:11:32;;;;;;;24.80;17.85;;;;;;;5.03;79.91;101235.75;4992694;28;20045;-51
2021/11/25 03:14:09;;;;;;;25.17;17.63;;;;;;;5.02;79.92;101231.38;4991550;28;20058;-53
2021/11/25 03:16:36;;;;;;;31.38;18.00;;;;;;;5.00;79.92;101226.19;4991349;28;20043;-52
2021/11/25 03:19:04;;;;;;;26.15;18.23;;;;;;;5.00;80.35;101226.19;4992047;28;20051;-51
2021/11/25 03:21:32;;;;;;;23.35;17.13;;;;;;;4.99;80.37;101213.75;4992551;28;20073;-52
2021/11/25 03:24:00;;;;;;;23.65;17.23;;;;;;;4.99;79.96;101200.25;4992550;28;20504;-51
2021/11/25 03:26:28;;;;;;;24.50;16.85;;;;;;;4.83;79.76;101203.50;4995331;28;20169;-47
2021/11/25 03:29:00;;;;;;;26.35;17.30;;;;;;;4.64;79.54;101199.91;4993525;28;20049;-46
2021/11/25 03:31:30;;;;;;;24.80;17.40;;;;;;;4.55;81.16;101212.84;4996407;28;20042;-45
2021/11/25 03:33:59;;;;;;;22.88;16.60;;;;;;;4.62;81.75;101212.81;4981659;28;20038;-49
2021/11/25 03:36:28;;;;;;;22.98;16.20;;;;;;;4.72;82.46;101204.22;4995347;28;20046;-46
2021/11/25 03:38:56;;;;;;;23.13;16.38;;;;;;;4.82;82.30;101201.84;4994891;28;20049;-46
2021/11/25 03:41:24;;;;;;;22.40;16.67;;;;;;;4.87;81.86;101194.75;4996451;28;20030;-47
2021/11/25 03:43:52;;;;;;;25.27;16.30;;;;;;;4.91;81.68;101195.13;4994499;28;20034;-46
2021/11/25 03:46:20;;;;;;;24.67;16.58;;;;;;;4.91;81.59;101185.16;4995225;28;20046;-49
2021/11/25 03:48:48;;;;;;;22.40;16.00;;;;;;;4.91;81.31;101187.03;4994640;28;20081;-47
2021/11/25 03:51:16;;;;;;;24.92;17.30;;;;;;;4.88;81.22;101173.97;4995283;28;20042;-47
2021/11/25 03:53:46;;;;;;;24.23;16.20;;;;;;;4.84;81.27;101178.16;4994598;28;20038;-47
2021/11/25 03:56:14;;;;;;;23.40;16.73;;;;;;;4.83;81.17;101187.28;4994836;28;20072;-47
2021/11/25 03:58:42;;;;;;;24.70;16.77;;;;;;;4.79;81.46;101188.81;4994275;28;20050;-46
2021/11/25 04:01:10;;;;;;;21.77;15.73;;;;;;;4.76;81.39;101186.53;4995787;28;20053;-46
2021/11/25 04:03:39;;;;;;;22.35;16.05;;;;;;;4.74;81.91;101180.50;4994581;28;20042;-49
2021/11/25 04:06:06;;;;;;;24.33;16.33;;;;;;;4.77;82.32;101180.09;4994849;28;20060;-48
2021/11/25 04:08:34;;;;;;;22.55;15.93;;;;;;;4.80;82.06;101182.34;4994132;28;20054;-53
2021/11/25 04:11:03;;;;;;;23.85;15.90;;;;;;;4.80;81.88;101172.38;4994167;28;20038;-51
2021/11/25 04:13:30;;;;;;;22.88;16.15;;;;;;;4.83;82.38;101173.81;4995352;28;20052;-54
2021/11/25 04:15:58;;;;;;;20.05;15.05;;;;;;;4.87;82.40;101166.91;4994499;28;20050;-54
2021/11/25 04:18:26;;;;;;;20.70;15.15;;;;;;;4.87;81.73;101172.31;4994540;28;20042;-52
2021/11/25 04:20:53;;;;;;;21.27;15.77;;;;;;;4.84;81.52;101167.38;4995700;28;20109;-50
2021/11/25 04:23:21;;;;;;;25.35;17.20;;;;;;;4.79;81.62;101175.31;4994148;28;20046;-52
2021/11/25 04:25:48;;;;;;;22.02;16.13;;;;;;;4.73;82.45;101178.88;4994479;28;20049;-51
2021/11/25 04:28:16;;;;;;;21.88;15.55;;;;;;;4.76;82.88;101173.03;4993528;28;20050;-53
2021/11/25 04:35:58;;;;;;;22.45;15.00;;;;;;;4.92;82.81;101158.97;4993502;28;20056;-46
2021/11/25 04:38:26;;;;;;;22.40;16.67;;;;;;;4.91;82.59;101163.56;4993680;28;20073;-49
2021/11/25 04:40:57;;;;;;;23.17;16.67;;;;;;;4.80;82.64;101155.34;5009476;28;20043;-50
2021/11/25 04:43:25;;;;;;;23.52;15.65;;;;;;;4.74;83.52;101161.63;4994521;28;20047;-45
2021/11/25 04:45:54;;;;;;;22.13;16.23;;;;;;;4.76;84.23;101156.84;4994172;28;20046;-47
2021/11/25 04:48:24;;;;;;;21.02;16.58;;;;;;;4.76;84.15;101156.84;4993493;28;20082;-49
2021/11/25 04:50:53;;;;;;;20.88;15.98;;;;;;;4.79;84.37;101153.72;4993260;28;20145;-46
2021/11/25 04:53:22;;;;;;;20.35;15.85;;;;;;;4.82;84.49;101164.06;4994956;28;20358;-45
2021/11/25 04:55:49;;;;;;;20.67;16.17;;;;;;;4.84;84.38;101153.88;4993477;28;20046;-46
2021/11/25 04:58:17;;;;;;;20.38;15.68;;;;;;;4.85;84.48;101159.03;4993355;28;20050;-46
2021/11/25 05:00:46;;;;;;;24.65;16.48;;;;;;;4.87;84.29;101170.44;4992173;28;20054;-45
2021/11/25 05:03:14;;;;;;;24.20;16.98;;;;;;;4.86;84.35;101166.09;4993500;28;20097;-47
2021/11/25 05:05:42;;;;;;;22.73;16.05;;;;;;;4.88;84.82;101165.84;4995218;28;20396;-46
2021/11/25 05:08:10;;;;;;;21.40;14.90;;;;;;;4.89;84.53;101172.94;4993126;28;20050;-47
2021/11/25 05:10:37;;;;;;;23.00;16.02;;;;;;;4.92;84.33;101175.19;4993147;28;20054;-45
2021/11/25 05:13:05;;;;;;;21.80;15.52;;;;;;;4.94;83.94;101175.78;4993684;28;20042;-45
2021/11/25 05:15:33;;;;;;;20.70;15.52;;;;;;;4.96;84.05;101171.00;5005649;28;20125;-49
2021/11/25 05:18:01;;;;;;;17.60;13.38;;;;;;;4.99;83.73;101162.44;4993585;28;20081;-52
2021/11/25 05:20:28;;;;;;;19.45;13.30;;;;;;;5.01;83.62;101163.03;4993221;28;20061;-52
2021/11/25 05:22:56;;;;;;;22.77;17.60;;;;;;;5.04;83.38;101161.78;4993453;28;20052;-55
2021/11/25 05:25:24;;;;;;;19.85;14.10;;;;;;;5.06;83.92;101155.09;4993421;28;20485;-46
2021/11/25 05:27:52;;;;;;;21.17;15.77;;;;;;;5.08;83.35;101163.81;4992989;28;20050;-49
2021/11/25 05:30:20;;;;;;;23.23;17.52;;;;;;;5.08;83.06;101174.63;4993070;28;20042;-49
2021/11/25 05:32:50;;;;;;;19.92;13.20;;;;;;;5.09;83.17;101165.44;4993026;28;20061;-49
2021/11/25 05:35:17;;;;;;;20.90;15.88;;;;;;;5.11;83.08;101168.75;4996975;28;20149;-46
2021/11/25 05:37:45;;;;;;;22.75;17.02;;;;;;;5.11;82.59;101173.34;4990237;28;20077;-45
2021/11/25 05:40:14;;;;;;;22.25;16.95;;;;;;;5.09;82.99;101170.84;4992369;28;20039;-49
2021/11/25 05:42:42;;;;;;;19.42;14.10;;;;;;;5.10;82.90;101169.81;4992850;28;20897;-45
2021/11/25 05:45:13;;;;;;;20.80;15.25;;;;;;;5.12;82.84;101165.03;4995256;28;20050;-51
2021/11/25 05:47:42;;;;;;;21.95;16.05;;;;;;;5.11;82.51;101166.06;4991995;28;20389;-50
2021/11/25 05:50:13;;;;;;;20.85;16.65;;;;;;;5.09;82.47;101154.66;4992563;28;20042;-50
2021/11/25 05:52:40;;;;;;;21.70;15.77;;;;;;;5.09;82.61;101154.66;4992467;28;20077;-46
2021/11/25 05:55:08;;;;;;;21.17;15.20;;;;;;;5.11;82.69;101157.94;4992754;28;20038;-45
2021/11/25 05:57:36;;;;;;;19.90;14.55;;;;;;;5.10;82.63;101159.00;4987959;28;20492;-45
2021/11/25 06:00:06;;;;;;;20.98;16.15;;;;;;;5.08;82.33;101171.91;4992184;28;20562;-51
2021/11/25 06:02:40;;;;;;;19.90;13.75;;;;;;;5.08;82.47;101168.41;4992444;28;20060;-54
2021/11/25 06:05:08;;;;;;;19.80;14.05;;;;;;;5.08;82.77;101157.59;4993683;28;20125;-49
2021/11/25 06:07:36;;;;;;;21.60;16.13;;;;;;;5.06;82.82;101155.09;4992262;28;20038;-48
2021/11/25 06:10:04;;;;;;;18.42;13.43;;;;;;;5.09;83.17;101156.53;4991622;28;20054;-53
2021/11/25 06:12:32;;;;;;;22.33;16.50;;;;;;;5.12;82.89;101162.31;4992368;28;20386;-51
2021/11/25 06:15:00;;;;;;;21.60;16.17;;;;;;;5.12;82.86;101162.31;4993297;28;20046;-51
2021/11/25 06:17:27;;;;;;;23.88;18.42;;;;;;;5.10;83.23;101167.13;4991854;28;20053;-49
2021/11/25 06:19:55;;;;;;;22.40;16.33;;;;;;;5.10;83.11;101156.31;4992590;28;20049;-49
2021/11/25 06:22:24;;;;;;;23.75;17.27;;;;;;;5.13;83.50;101161.25;4992805;28;20043;-47
2021/11/25 06:24:52;;;;;;;22.20;16.08;;;;;;;5.13;83.41;101150.47;4301327;28;10000709;-50
2021/11/25 06:27:20;;;;;;;26.35;19.40;;;;;;;5.13;83.69;101145.06;4991311;28;20049;-51
2021/11/25 06:29:48;;;;;;;24.52;18.98;;;;;;;5.13;83.99;101145.06;4990066;28;20466;-51
2021/11/25 06:32:16;;;;;;;23.75;18.60;;;;;;;5.11;83.42;101140.94;4990244;28;20046;-48
2021/11/25 06:34:44;;;;;;;26.85;18.75;;;;;;;5.02;84.11;101137.69;4989972;28;20112;-49
2021/11/25 06:37:11;;;;;;;27.17;18.55;;;;;;;4.98;84.75;101127.53;4990539;28;20125;-47
2021/11/25 06:39:39;;;;;;;25.75;18.95;;;;;;;4.95;84.94;101123.41;4989314;28;20412;-50
2021/11/25 06:42:07;;;;;;;23.38;17.92;;;;;;;4.94;84.91;101115.56;4989876;28;20050;-52
2021/11/25 06:44:35;;;;;;;25.23;19.30;;;;;;;4.95;85.29;101112.63;4989692;28;20461;-51
2021/11/25 06:47:03;;;;;;;24.48;19.02;;;;;;;4.96;84.72;101117.00;4991053;28;20066;-51
2021/11/25 06:49:31;;;;;;;21.40;16.17;;;;;;;4.91;84.74;101112.25;4989464;28;20049;-51
2021/11/25 06:51:58;;;;;;;21.27;17.38;;;;;;;4.91;84.87;101108.75;4989615;28;20046;-49
2021/11/25 06:54:26;;;;;;;26.83;18.40;;;;;;;4.91;85.39;101108.75;4989789;28;20075;-50
2021/11/25 06:56:53;;;;;;;21.15;17.73;;;;;;;4.94;85.49;101105.59;4989344;28;20047;-49
2021/11/25 06:59:21;;;;;;;22.25;17.58;;;;;;;4.94;85.38;101102.88;4992391;28;20078;-50
2021/11/25 07:01:49;;;;;;;22.88;18.05;;;;;;;4.97;85.50;101105.13;4994742;28;20054;-52
2021/11/25 07:04:18;;;;;;;22.92;17.90;;;;;;;5.00;85.55;101099.28;4993820;28;20399;-49
2021/11/25 07:06:45;;;;;;;28.27;20.27;;;;;;;5.03;85.53;101101.53;4993295;28;20055;-55
2021/11/25 07:09:13;;;;;;;23.17;17.75;;;;;;;5.03;85.05;101095.31;4994029;28;20484;-54
2021/11/25 07:11:46;;;;;;;24.10;18.33;;;;;;;5.00;84.92;101085.78;5007627;28;20137;-51
2021/11/25 07:14:14;;;;;;;23.90;17.98;;;;;;;4.99;85.32;101089.53;4993174;28;20064;-50
2021/11/25 07:16:41;;;;;;;26.52;19.92;;;;;;;4.97;85.07;101097.03;5004575;28;20043;-53
2021/11/25 07:19:09;;;;;;;27.25;20.05;;;;;;;4.95;85.03;101115.31;4992823;28;20041;-52
2021/11/25 07:21:37;;;;;;;29.08;20.00;;;;;;;4.85;85.34;101120.41;4992746;28;20484;-49
2021/11/25 07:24:05;;;;;;;26.30;19.77;;;;;;;4.80;86.28;101122.97;4993236;28;20042;-49
2021/11/25 07:26:32;;;;;;;26.02;20.58;;;;;;;4.80;86.29;101118.38;4993380;28;20535;-50
2021/11/25 07:29:00;;;;;;;28.55;20.70;;;;;;;4.83;86.35;101122.50;4995224;28;20046;-53
2021/11/25 07:31:29;;;;;;;27.23;20.33;;;;;;;4.81;86.16;101114.66;4993321;28;20066;-50
2021/11/25 07:33:57;;;;;;;28.60;20.05;;;;;;;4.78;86.05;101111.56;4995086;28;20084;-52
2021/11/25 07:36:25;;;;;;;27.20;20.25;;;;;;;4.77;86.30;101118.84;4994603;28;20053;-52
2021/11/25 07:38:53;;;;;;;30.63;19.98;;;;;;;4.75;86.91;101123.63;4995798;28;20047;-51
2021/11/25 07:41:21;;;;;;;27.55;19.30;;;;;;;4.76;86.66;101121.75;4995275;28;20444;-52
2021/11/25 07:43:48;;;;;;;25.52;18.75;;;;;;;4.79;86.53;101111.34;4993890;28;20034;-51
2021/11/25 07:46:16;;;;;;;25.75;18.10;;;;;;;4.84;86.72;101116.06;4995122;28;20508;-51
2021/11/25 07:48:44;;;;;;;18.15;13.18;;;;;;;4.88;86.60;101114.56;4994722;28;20038;-48
2021/11/25 07:51:11;;;;;;;23.15;16.27;;;;;;;4.94;86.78;101119.09;4994013;28;20409;-51
2021/11/25 07:53:39;;;;;;;22.30;14.43;;;;;;;4.98;86.44;101104.09;4994642;28;20114;-50
2021/11/25 07:56:07;;;;;;;18.70;14.15;;;;;;;5.02;86.88;101110.69;4994696;28;20046;-48
2021/11/25 07:58:34;;;;;;;17.35;12.95;;;;;;;5.05;86.66;101109.41;4994352;28;20381;-52
2021/11/25 08:01:03;;;;;;;20.30;14.88;;;;;;;5.06;87.02;101111.88;4995504;28;20104;-52
2021/11/25 08:03:31;;;;;;;16.30;11.52;;;;;;;5.09;87.54;101113.31;4994404;28;20080;-47
2021/11/25 08:05:58;;;;;;;22.95;15.02;;;;;;;5.10;86.70;101117.69;4993459;28;20411;-52
2021/11/25 08:08:26;;;;;;;25.90;16.52;;;;;;;5.09;86.33;101106.03;4994231;28;20416;-50
2021/11/25 08:10:55;;;;;;;27.20;15.75;;;;;;;5.09;86.22;101114.13;4994971;28;20057;-48
2021/11/25 08:13:24;;;;;;;18.50;14.10;;;;;;;5.12;86.43;101111.00;5005091;28;20125;-50
2021/11/25 08:15:52;;;;;;;19.15;14.48;;;;;;;5.13;86.16;101112.66;4992884;28;20039;-49
2021/11/25 08:18:20;;;;;;;22.25;15.95;;;;;;;5.16;86.25;101110.56;4994016;28;20042;-52
2021/11/25 08:20:47;;;;;;;20.95;14.05;;;;;;;5.15;85.84;101112.44;4992328;28;20404;-50
2021/11/25 08:23:15;;;;;;;23.70;16.75;;;;;;;5.12;85.98;101105.59;4994903;28;20413;-47
2021/11/25 08:25:43;;;;;;;27.35;20.02;;;;;;;5.13;88.22;101117.22;4998379;28;20149;-51
2021/11/25 08:28:11;;;;;;;23.88;18.60;;;;;;;5.27;87.85;101123.31;4994026;28;20142;-47
2021/11/25 08:30:38;;;;;;;24.63;17.77;;;;;;;5.26;86.27;101122.47;4995633;28;20489;-50
2021/11/25 08:33:06;;;;;;;22.15;17.05;;;;;;;5.21;85.95;101124.19;4996316;28;20046;-52
2021/11/25 08:35:34;;;;;;;26.05;16.48;;;;;;;5.15;86.54;101125.94;4993556;28;20589;-48
2021/11/25 08:38:02;;;;;;;28.77;15.85;;;;;;;5.19;87.33;101126.28;4993789;28;20483;-48
2021/11/25 08:40:30;;;;;;;21.35;14.05;;;;;;;5.23;87.10;101132.91;4994240;28;20492;-51
2021/11/25 08:42:58;;;;;;;20.25;12.73;;;;;;;5.22;86.99;101128.53;4994664;28;20480;-48
2021/11/25 08:45:26;;;;;;;18.65;11.43;;;;;;;5.29;88.94;101138.25;4993721;28;20509;-50
2021/11/25 08:47:55;;;;;;;23.55;12.20;;;;;;;5.31;88.85;101135.31;4993646;28;20042;-53
2021/11/25 08:50:23;;;;;;;20.42;12.95;;;;;;;5.33;89.43;101138.59;4994530;28;20044;-49
2021/11/25 08:52:51;;;;;;;18.92;11.70;;;;;;;5.32;89.11;101126.97;4993877;28;20042;-50
2021/11/25 08:55:20;;;;;;;17.38;11.65;;;;;;;5.31;89.07;101124.50;4993664;28;20507;-49
2021/11/25 08:57:47;;;;;;;18.88;11.48;;;;;;;5.28;88.24;101124.94;4992407;28;20488;-53
2021/11/25 09:00:17;;;;;;;16.63;12.25;;;;;;;5.28;88.30;101124.94;4993409;28;20053;-47
2021/11/25 09:02:44;;;;;;;16.88;12.43;;;;;;;5.30;88.47;101117.44;4993692;28;20048;-49
2021/11/25 09:05:13;;;;;;;22.17;11.05;;;;;;;5.40;92.84;101115.03;4993569;28;20042;-47
2021/11/25 09:07:41;;;;;;;16.73;10.27;;;;;;;5.45;92.82;101115.19;4993459;28;20105;-48
2021/11/25 09:10:10;;;;;;;21.92;11.35;;;;;;;5.48;94.00;101109.34;5008573;28;20084;-51
2021/11/25 09:12:37;;;;;;;16.50;11.27;;;;;;;5.46;92.00;101110.59;4303584;28;10000625;-48
2021/11/25 09:15:20;;;;;;;15.13;10.43;;;;;;;5.42;91.29;101104.84;4991886;28;20126;-49
2021/11/25 09:17:48;;;;;;;18.02;13.75;;;;;;;5.45;93.10;101104.38;4990534;28;20096;-49
2021/11/25 09:20:25;;;;;;;17.63;10.88;;;;;;;5.48;92.87;101101.25;4990616;28;20121;-48
2021/11/25 09:22:52;;;;;;;16.38;11.27;;;;;;;5.53;93.17;101106.78;4990968;28;20396;-49
2021/11/25 09:25:20;;;;;;;17.85;11.80;;;;;;;5.47;91.35;101113.09;4990664;28;20070;-49
2021/11/25 09:27:48;;;;;;;17.63;12.52;;;;;;;5.46;92.06;101116.00;4990498;28;20054;-49
2021/11/25 09:30:15;;;;;;;15.30;11.52;;;;;;;5.50;93.32;101109.91;4990976;28;20486;-49
2021/11/25 09:32:43;;;;;;;16.00;10.75;;;;;;;5.50;93.40;101114.50;4991062;28;20039;-51
2021/11/25 09:35:17;;;;;;;20.52;11.02;;;;;;;5.58;96.09;101113.34;4990882;28;20054;-45
2021/11/25 09:37:46;;;;;;;15.98;10.85;;;;;;;5.69;99.56;101108.00;4989072;28;20092;-49
2021/11/25 09:40:22;;;;;;;13.38;7.93;;;;;;;5.71;98.39;101110.50;4976104;28;20515;-51
2021/11/25 09:43:03;;;;;;;17.13;9.70;;;;;;;5.72;98.12;101104.88;4991260;28;20034;-48
2021/11/25 09:45:33;;;;;;;18.88;11.23;;;;;;;5.68;94.50;101102.84;4980685;28;20038;-50
2021/11/25 09:48:07;;;;;;;15.85;9.45;;;;;;;5.75;100.00;101103.59;4989344;28;20058;-49
2021/11/25 09:50:37;;;;;;;16.20;11.15;;;;;;;5.70;96.76;101103.41;4989782;28;20096;-50
2021/11/25 09:53:10;;;;;;;20.80;14.90;;;;;;;5.50;91.23;101107.22;4995994;28;20056;-56
2021/11/25 09:55:40;;;;;;;19.92;14.18;;;;;;;5.41;90.74;101113.16;4992393;28;20039;-51
2021/11/25 09:58:12;;;;;;;19.73;14.80;;;;;;;5.34;90.93;101113.25;4992815;28;20058;-48
2021/11/25 10:00:43;;;;;;;20.27;15.07;;;;;;;5.29;90.86;101107.69;4987943;28;20038;-53
2021/11/25 10:03:15;;;;;;;19.30;12.57;;;;;;;5.30;91.10;101106.66;4993087;28;20559;-52
2021/11/25 10:05:49;;;;;;;17.30;11.38;;;;;;;5.37;91.63;101117.38;4988599;28;20052;-52
2021/11/25 10:08:27;;;;;;;19.30;13.55;;;;;;;5.40;91.56;101116.91;4992289;28;20046;-48
2021/11/25 10:11:19;;;;;;;14.25;10.60;;;;;;;5.42;92.23;101115.63;4992073;28;20050;-52
2021/11/25 10:13:56;;;;;;;16.67;10.75;;;;;;;5.44;91.56;101118.94;4992540;28;20046;-49
2021/11/25 10:16:30;;;;;;;17.35;11.18;;;;;;;5.49;92.44;101115.56;4978552;28;20523;-50
2021/11/25 10:19:19;;;;;;;16.38;12.60;;;;;;;5.48;91.46;101119.31;4992201;28;20042;-51
2021/11/25 10:21:52;;;;;;;20.13;13.93;;;;;;;5.47;91.02;101121.19;4992637;28;20039;-49
2021/11/25 10:24:44;;;;;;;18.52;13.18;;;;;;;5.48;91.12;101125.56;4992210;28;20070;-53
2021/11/25 10:27:18;;;;;;;17.90;12.68;;;;;;;5.49;91.67;101126.38;5000995;28;20047;-50
2021/11/25 10:29:48;;;;;;;17.15;11.93;;;;;;;5.49;91.81;101124.50;4990203;28;20046;-51
2021/11/25 10:32:21;;;;;;;19.92;13.90;;;;;;;5.48;91.71;101130.13;4992692;28;20049;-52
2021/11/25 10:35:08;;;;;;;19.92;15.05;;;;;;;5.47;92.17;101129.28;4991346;28;20041;-50
2021/11/25 10:37:54;;;;;;;22.55;14.50;;;;;;;5.48;92.72;101122.00;4996486;28;20473;-49
2021/11/25 10:40:27;;;;;;;20.88;14.57;;;;;;;5.44;92.83;101129.75;4979745;28;20492;-48
2021/11/25 10:42:54;;;;;;;23.60;14.65;;;;;;;5.50;95.25;101120.72;4987535;28;20077;-46
2021/11/25 10:45:22;;;;;;;19.45;14.63;;;;;;;5.53;94.46;101117.59;4992649;28;20420;-50
2021/11/25 10:47:58;;;;;;;23.13;16.08;;;;;;;5.49;94.28;101102.88;4994983;28;20038;-49
2021/11/25 10:50:28;;;;;;;22.20;16.45;;;;;;;5.45;94.37;101104.38;4997751;28;20193;-52
2021/11/25 10:53:08;;;;;;;22.30;16.02;;;;;;;5.43;95.03;101101.06;5004305;28;20042;-48
2021/11/25 10:55:38;;;;;;;23.48;16.63;;;;;;;5.48;96.19;101095.84;4980487;28;20046;-51
2021/11/25 10:58:07;;;;;;;23.75;17.25;;;;;;;5.52;96.39;101090.78;4987593;28;20097;-52
2021/11/25 11:00:38;;;;;;;21.63;17.27;;;;;;;5.50;95.88;101099.09;5003583;28;20057;-52
2021/11/25 11:03:05;;;;;;;24.95;17.77;;;;;;;5.47;95.98;101102.28;4978495;28;20041;-50
2021/11/25 11:06:02;;;;;;;25.83;18.15;;;;;;;5.45;96.46;101108.97;5001263;28;20392;-49
2021/11/25 11:08:44;;;;;;;23.48;17.30;;;;;;;5.42;96.82;101104.84;5000892;28;20042;-49
2021/11/25 11:11:12;;;;;;;25.88;19.08;;;;;;;5.42;97.19;101110.22;4993722;28;20456;-49
2021/11/25 11:13:50;;;;;;;28.60;20.58;;;;;;;5.41;97.39;101103.19;5000540;28;20050;-50
2021/11/25 11:16:31;;;;;;;28.67;19.75;;;;;;;5.45;97.16;101104.38;4992981;28;20042;-47
2021/11/25 11:19:04;;;;;;;28.08;19.02;;;;;;;5.50;97.20;101098.28;4999014;28;20057;-51
2021/11/25 11:21:40;;;;;;;29.63;19.80;;;;;;;5.55;97.21;101098.41;4993111;28;20042;-52
2021/11/25 11:24:11;;;;;;;27.42;19.58;;;;;;;5.59;97.19;101096.94;5000611;28;20039;-48
2021/11/25 11:26:42;;;;;;;31.45;21.80;;;;;;;5.63;97.27;101091.88;4987875;28;20073;-50
2021/11/25 11:29:10;;;;;;;37.95;22.83;;;;;;;5.67;97.16;101095.78;4993633;28;20049;-49
2021/11/25 11:31:39;;;;;;;29.55;19.58;;;;;;;5.68;97.38;101092.03;4999931;28;20038;-49